Goldbond, Virginia
Current Conditions -  °F | °C
As of 3:35 PM on Saturday 25 Oct 2014 (Local Time) from KPSK Reporting Station
Clear Clear  
Wind Chill: 70°   Ceiling: Unl
Heat Index: 70°   Visibility: 10mi
Dew Point: 40°   Wind: 9mph
Humidity: 34%   Direction: 270°W
Pressure: 29.96"   Gusts: NA
Location:  37.38°N, 80.66°W
Report Text: KPSK 251935Z AUTO 27008KT 10SM CLR 21/05 A2996 RMK AO2 T02110045
Loading
Personal Weather Stations






























Interactive Weather Map
Tropical Storm Tracking
New forecast layout! Learn more

10-Day Weather Forecast

Advertisements
Track Severe Weather on mobile